Ocean King D — V7TV6 — position and weather

sailwx.info

Track history (hours):
 
Tides and Currents Weather Stations Pressure Air Temp Water Temp Dewpoint Dewpoint Depression Visibility Wind Speed Wind Dir Waves Ship Positions

Ocean King D

Last reported at 2016-Apr-30 04:21 UTC. Time now 2016-Apr-30 07:13 UTC.
Position N 24°22' W 084°54'.

Length 190 m; draft 10.2 m.

Type: Cargo ship. MMSI: 538003892.

Date/timePositionNaut miles runAvg speedWind from/ knotsBaromVisibWave heightAir tempDewpointWater temp
2016-Apr-30 04:21N 24°22' W 084°54'424 9.9
2016-Apr-28 09:33N 29°45' W 090°01'10 9.9
2016-Apr-28 08:33N 29°53' W 089°54'3 2.3
2016-Apr-28 07:11N 29°55' W 089°56'0 0.0
2016-Apr-28 06:29N 29°55' W 089°56'0 0.0
2016-Apr-28 05:32N 29°55' W 089°56'0 0.0
2016-Apr-28 04:11N 29°55' W 089°56'0 0.0
2016-Apr-28 03:26N 29°55' W 089°56'0 0.0
2016-Apr-28 01:32N 29°55' W 089°56'0 0.0
2016-Apr-27 23:29N 29°55' W 089°56'0 0.0
2016-Apr-27 22:26N 29°55' W 089°56'0 0.0
2016-Apr-27 21:32N 29°55' W 089°56'0 0.0
2016-Apr-27 20:32N 29°55' W 089°56'0 0.0
2016-Apr-27 19:11N 29°55' W 089°56'0 0.0
2016-Apr-27 18:29N 29°55' W 089°56'0 0.0
2016-Apr-27 17:20N 29°55' W 089°56'0 0.0
2016-Apr-27 16:32N 29°55' W 089°56'0 0.0
2016-Apr-27 15:26N 29°55' W 089°56'0 0.0
2016-Apr-27 14:23N 29°55' W 089°56'0 0.0
2016-Apr-27 13:20N 29°55' W 089°56'0 0.0
2016-Apr-27 12:32N 29°55' W 089°56'0 0.0
2016-Apr-27 11:29N 29°55' W 089°56'0 0.0
2016-Apr-27 10:23N 29°55' W 089°56'0 0.0
2016-Apr-27 09:29N 29°55' W 089°56'0 0.0
2016-Apr-27 08:23N 29°55' W 089°56'0 0.0
2016-Apr-27 07:29N 29°55' W 089°56'0 0.0
2016-Apr-27 06:32N 29°55' W 089°56'0 0.0
2016-Apr-27 05:23N 29°55' W 089°56'0 0.0
2016-Apr-27 04:32N 29°55' W 089°56'0 0.0
2016-Apr-27 03:29N 29°55' W 089°56'0 0.0
2016-Apr-27 02:32N 29°55' W 089°56'0 0.0
2016-Apr-27 01:26N 29°55' W 089°56'0 0.0
2016-Apr-27 00:23N 29°55' W 089°56'0 0.0
2016-Apr-26 23:32N 29°55' W 089°56'0 0.0
2016-Apr-26 22:29N 29°55' W 089°56'0 0.0
2016-Apr-26 21:32N 29°55' W 089°56'0 0.0
2016-Apr-26 20:32N 29°55' W 089°56'0 0.0
2016-Apr-26 19:32N 29°55' W 089°56'0 0.0
2016-Apr-26 18:29N 29°55' W 089°56'0 0.0
2016-Apr-26 17:32N 29°55' W 089°56'0 0.0
2016-Apr-26 16:32N 29°55' W 089°56'0 0.0
2016-Apr-26 15:29N 29°55' W 089°56'0 0.0
2016-Apr-26 14:33N 29°55' W 089°56'0 0.0
2016-Apr-26 13:33N 29°55' W 089°56'0 0.0
2016-Apr-26 12:33N 29°55' W 089°56'0 0.0
2016-Apr-26 11:33N 29°55' W 089°56'0 0.0
2016-Apr-26 10:33N 29°55' W 089°56'0 0.0
2016-Apr-26 09:33N 29°55' W 089°56'0 0.0
2016-Apr-26 08:33N 29°55' W 089°56'0 0.0
2016-Apr-26 07:33N 29°55' W 089°56'0 0.0
2016-Apr-26 06:33N 29°55' W 089°56'0 0.0
2016-Apr-26 05:33N 29°55' W 089°56'0 0.0
2016-Apr-26 04:33N 29°55' W 089°56'0 0.0
2016-Apr-26 03:33N 29°55' W 089°56'0 0.0
2016-Apr-26 02:33N 29°55' W 089°56'0 0.0
2016-Apr-26 01:33N 29°55' W 089°56'0 0.0
2016-Apr-26 00:33N 29°55' W 089°56'0 0.0
2016-Apr-25 23:33N 29°55' W 089°56'0 0.0
2016-Apr-25 22:33N 29°55' W 089°56'0 0.0
2016-Apr-25 21:33N 29°55' W 089°56'0 0.0
2016-Apr-25 20:33N 29°55' W 089°56'0 0.0
2016-Apr-25 19:33N 29°55' W 089°56'0 0.0
2016-Apr-25 18:33N 29°55' W 089°56'0 0.0
2016-Apr-25 17:33N 29°55' W 089°56'0 0.0
2016-Apr-25 16:33N 29°55' W 089°56'0 0.0
2016-Apr-25 15:33N 29°55' W 089°56'0 0.0
2016-Apr-25 14:33N 29°55' W 089°56'0 0.0
2016-Apr-25 13:32N 29°55' W 089°56'0 0.0
2016-Apr-25 12:33N 29°55' W 089°56'0 0.0
2016-Apr-25 11:33N 29°55' W 089°56'0 0.0
2016-Apr-25 10:33N 29°55' W 089°56'0 0.0
2016-Apr-25 09:33N 29°55' W 089°56'0 0.0
2016-Apr-25 08:33N 29°55' W 089°56'0 0.0
2016-Apr-25 07:33N 29°55' W 089°56'0 0.0
2016-Apr-25 06:33N 29°55' W 089°56'2 2.3
2016-Apr-25 05:29N 29°54' W 089°54'0 0.0
2016-Apr-25 04:29N 29°54' W 089°54'0 0.0
2016-Apr-25 03:29N 29°54' W 089°54'1 1.5
2016-Apr-25 02:33N 29°52' W 089°55'2 1.5
2016-Apr-25 01:32N 29°52' W 089°56'0 0.0
2016-Apr-25 00:29N 29°52' W 089°56'0 0.0
2016-Apr-24 23:32N 29°52' W 089°56'0 0.0
2016-Apr-24 22:29N 29°52' W 089°56'0 0.0
2016-Apr-24 21:32N 29°52' W 089°56'0 0.0
2016-Apr-24 20:32N 29°52' W 089°56'0 0.0
2016-Apr-24 19:32N 29°52' W 089°56'0 0.0
2016-Apr-24 18:32N 29°52' W 089°56'0 0.0
2016-Apr-24 17:32N 29°52' W 089°56'0 0.0
2016-Apr-24 16:32N 29°52' W 089°56'0 0.0
2016-Apr-24 15:32N 29°52' W 089°56'0 0.0
2016-Apr-24 14:32N 29°52' W 089°56'0 0.0
2016-Apr-24 13:32N 29°52' W 089°56'0 0.0
2016-Apr-24 12:32N 29°52' W 089°56'0 0.0
2016-Apr-24 11:32N 29°52' W 089°56'0 0.0
2016-Apr-24 10:32N 29°52' W 089°56'0 0.0
2016-Apr-24 09:32N 29°52' W 089°56'0 0.0
2016-Apr-24 08:32N 29°52' W 089°56'0 0.0
2016-Apr-24 07:32N 29°52' W 089°56'0 0.0
2016-Apr-24 06:32N 29°52' W 089°56'0 0.0
2016-Apr-24 05:32N 29°52' W 089°56'0 0.0
2016-Apr-24 04:32N 29°52' W 089°56'0 0.0
2016-Apr-24 03:32N 29°52' W 089°56'0 0.0
2016-Apr-24 02:29N 29°52' W 089°56'0 0.0
2016-Apr-24 01:32N 29°52' W 089°56'0 0.0
2016-Apr-24 00:32N 29°52' W 089°56'0 0.0
2016-Apr-23 23:32N 29°52' W 089°56'0 0.0
2016-Apr-23 22:29N 29°52' W 089°56'0 0.0
2016-Apr-23 21:32N 29°52' W 089°56'0 0.0
2016-Apr-23 20:32N 29°52' W 089°56'0 0.0
2016-Apr-23 19:32N 29°52' W 089°56'0 0.0
2016-Apr-23 18:32N 29°52' W 089°56'0 0.0
2016-Apr-23 17:32N 29°52' W 089°56'0 0.0
2016-Apr-23 16:32N 29°52' W 089°56'0 0.0
2016-Apr-23 15:32N 29°52' W 089°56'0 0.0
2016-Apr-23 14:29N 29°52' W 089°56'0 0.0
2016-Apr-23 13:32N 29°52' W 089°56'0 0.0
2016-Apr-23 12:32N 29°52' W 089°56'0 0.0
2016-Apr-23 11:32N 29°52' W 089°56'0 0.0
2016-Apr-23 10:32N 29°52' W 089°56'0 0.0
2016-Apr-23 09:32N 29°52' W 089°56'0 0.0
2016-Apr-23 08:32N 29°52' W 089°56'0 0.0
2016-Apr-23 07:32N 29°52' W 089°56'0 0.0
2016-Apr-23 06:32N 29°52' W 089°56'0 0.0
2016-Apr-23 05:32N 29°52' W 089°56'0 0.0
2016-Apr-23 04:32N 29°52' W 089°56'0 0.0
2016-Apr-23 03:32N 29°52' W 089°56'0 0.0
2016-Apr-23 02:32N 29°52' W 089°56'0 0.0
2016-Apr-23 01:29N 29°52' W 089°56'0 0.0
2016-Apr-23 00:32N 29°52' W 089°56'0 0.0
2016-Apr-22 23:32N 29°52' W 089°56'0 0.0
2016-Apr-22 22:29N 29°52' W 089°56'0 0.0
2016-Apr-22 21:29N 29°52' W 089°56'0 0.0
2016-Apr-22 20:32N 29°52' W 089°56'0 0.0
2016-Apr-22 19:32N 29°52' W 089°56'0 0.0
2016-Apr-22 18:32N 29°52' W 089°56'0 0.0
2016-Apr-22 17:29N 29°52' W 089°56'0 0.0
2016-Apr-22 16:32N 29°52' W 089°56'0 0.0
2016-Apr-22 15:32N 29°52' W 089°56'0 0.0
2016-Apr-22 14:32N 29°52' W 089°56'0 0.0
2016-Apr-22 13:32N 29°52' W 089°56'0 0.0
2016-Apr-22 12:32N 29°52' W 089°56'0 0.0
2016-Apr-22 11:32N 29°52' W 089°56'0 0.0
2016-Apr-22 10:32N 29°52' W 089°56'0 0.0
2016-Apr-22 09:32N 29°52' W 089°56'0 0.0
2016-Apr-22 08:26N 29°52' W 089°56'0 0.0
2016-Apr-22 07:29N 29°52' W 089°56'0 0.0
2016-Apr-22 06:29N 29°52' W 089°56'0 0.0
2016-Apr-22 05:32N 29°52' W 089°56'0 0.0
2016-Apr-22 04:32N 29°52' W 089°56'0 0.0
2016-Apr-22 03:32N 29°52' W 089°56'0 0.0
2016-Apr-22 02:32N 29°52' W 089°56'0 0.0
2016-Apr-22 01:32N 29°52' W 089°56'0 0.0
2016-Apr-22 00:32N 29°52' W 089°56'0 0.0
2016-Apr-21 23:26N 29°52' W 089°56'0 0.0
2016-Apr-21 22:32N 29°52' W 089°56'0 0.0
2016-Apr-21 21:32N 29°52' W 089°56'0 0.0
2016-Apr-21 20:32N 29°52' W 089°56'0 0.0
2016-Apr-21 19:32N 29°52' W 089°56'0 0.0
2016-Apr-21 18:32N 29°52' W 089°56'0 0.0
2016-Apr-21 17:29N 29°52' W 089°56'0 0.0
2016-Apr-21 16:32N 29°52' W 089°56'0 0.0
2016-Apr-21 15:32N 29°52' W 089°56'0 0.0
2016-Apr-21 14:32N 29°52' W 089°56'0 0.0
2016-Apr-21 13:32N 29°52' W 089°56'0 0.0
2016-Apr-21 12:32N 29°52' W 089°56'0 0.0
2016-Apr-21 11:32N 29°52' W 089°56'0 0.0
2016-Apr-21 10:29N 29°52' W 089°56'0 0.0
2016-Apr-21 09:32N 29°52' W 089°56'0 0.0
2016-Apr-21 08:32N 29°52' W 089°56'0 0.0
2016-Apr-21 07:32N 29°52' W 089°56'0 0.0
2016-Apr-21 06:32N 29°52' W 089°56'0 0.0
2016-Apr-21 05:32N 29°52' W 089°56'0 0.0
2016-Apr-21 04:26N 29°52' W 089°56'0 0.0
2016-Apr-21 03:32N 29°52' W 089°56'0 0.0
2016-Apr-21 02:32N 29°52' W 089°56'0 0.0
2016-Apr-21 01:29N 29°52' W 089°56'0 0.0
2016-Apr-21 00:32N 29°52' W 089°56'0 0.0
2016-Apr-20 23:32N 29°52' W 089°56'0 0.0
2016-Apr-20 22:29N 29°52' W 089°56'0 0.0
2016-Apr-20 21:32N 29°52' W 089°56'0 0.0
2016-Apr-20 20:32N 29°52' W 089°56'0 0.0
2016-Apr-20 19:32N 29°52' W 089°56'0 0.0
2016-Apr-20 18:32N 29°52' W 089°56'0 0.0
2016-Apr-20 17:29N 29°52' W 089°56'0 0.0
2016-Apr-20 16:32N 29°52' W 089°56'0 0.0
2016-Apr-20 15:32N 29°52' W 089°56'0 0.0
2016-Apr-20 14:29N 29°52' W 089°56'0 0.0
2016-Apr-20 13:32N 29°52' W 089°56'0 0.0
2016-Apr-20 12:32N 29°52' W 089°56'0 0.0
2016-Apr-20 11:32N 29°52' W 089°56'0 0.0
2016-Apr-20 10:32N 29°52' W 089°56'0 0.0
2016-Apr-20 09:32N 29°52' W 089°56'0 0.0
2016-Apr-20 08:32N 29°52' W 089°56'0 0.0
2016-Apr-20 07:32N 29°52' W 089°56'  
Track history (hours):
 
Tides and Currents Weather Stations Pressure Air Temp Water Temp Dewpoint Dewpoint Depression Visibility Wind Speed Wind Dir Waves Ship Positions

Ocean King D

Last reported at 2016-Apr-30 04:21 UTC. Time now 2016-Apr-30 07:13 UTC.
Position N 24°22' W 084°54'.

Length 190 m; draft 10.2 m.

Type: Cargo ship. MMSI: 538003892.

Date/timePositionNaut miles runAvg speedWind from/ knotsBaromVisibWave heightAir tempDewpointWater temp
2016-Apr-30 04:21N 24°22' W 084°54'424 9.9
2016-Apr-28 09:33N 29°45' W 090°01'10 9.9
2016-Apr-28 08:33N 29°53' W 089°54'3 2.3
2016-Apr-28 07:11N 29°55' W 089°56'0 0.0
2016-Apr-28 06:29N 29°55' W 089°56'0 0.0
2016-Apr-28 05:32N 29°55' W 089°56'0 0.0
2016-Apr-28 04:11N 29°55' W 089°56'0 0.0
2016-Apr-28 03:26N 29°55' W 089°56'0 0.0
2016-Apr-28 01:32N 29°55' W 089°56'0 0.0
2016-Apr-27 23:29N 29°55' W 089°56'0 0.0
2016-Apr-27 22:26N 29°55' W 089°56'0 0.0
2016-Apr-27 21:32N 29°55' W 089°56'0 0.0
2016-Apr-27 20:32N 29°55' W 089°56'0 0.0
2016-Apr-27 19:11N 29°55' W 089°56'0 0.0
2016-Apr-27 18:29N 29°55' W 089°56'0 0.0
2016-Apr-27 17:20N 29°55' W 089°56'0 0.0
2016-Apr-27 16:32N 29°55' W 089°56'0 0.0
2016-Apr-27 15:26N 29°55' W 089°56'0 0.0
2016-Apr-27 14:23N 29°55' W 089°56'0 0.0
2016-Apr-27 13:20N 29°55' W 089°56'0 0.0
2016-Apr-27 12:32N 29°55' W 089°56'0 0.0
2016-Apr-27 11:29N 29°55' W 089°56'0 0.0
2016-Apr-27 10:23N 29°55' W 089°56'0 0.0
2016-Apr-27 09:29N 29°55' W 089°56'0 0.0
2016-Apr-27 08:23N 29°55' W 089°56'0 0.0
2016-Apr-27 07:29N 29°55' W 089°56'0 0.0
2016-Apr-27 06:32N 29°55' W 089°56'0 0.0
2016-Apr-27 05:23N 29°55' W 089°56'0 0.0
2016-Apr-27 04:32N 29°55' W 089°56'0 0.0
2016-Apr-27 03:29N 29°55' W 089°56'0 0.0
2016-Apr-27 02:32N 29°55' W 089°56'0 0.0
2016-Apr-27 01:26N 29°55' W 089°56'0 0.0
2016-Apr-27 00:23N 29°55' W 089°56'0 0.0
2016-Apr-26 23:32N 29°55' W 089°56'0 0.0
2016-Apr-26 22:29N 29°55' W 089°56'0 0.0
2016-Apr-26 21:32N 29°55' W 089°56'0 0.0
2016-Apr-26 20:32N 29°55' W 089°56'0 0.0
2016-Apr-26 19:32N 29°55' W 089°56'0 0.0
2016-Apr-26 18:29N 29°55' W 089°56'0 0.0
2016-Apr-26 17:32N 29°55' W 089°56'0 0.0
2016-Apr-26 16:32N 29°55' W 089°56'0 0.0
2016-Apr-26 15:29N 29°55' W 089°56'0 0.0
2016-Apr-26 14:33N 29°55' W 089°56'0 0.0
2016-Apr-26 13:33N 29°55' W 089°56'0 0.0
2016-Apr-26 12:33N 29°55' W 089°56'0 0.0
2016-Apr-26 11:33N 29°55' W 089°56'0 0.0
2016-Apr-26 10:33N 29°55' W 089°56'0 0.0
2016-Apr-26 09:33N 29°55' W 089°56'0 0.0
2016-Apr-26 08:33N 29°55' W 089°56'0 0.0
2016-Apr-26 07:33N 29°55' W 089°56'0 0.0
2016-Apr-26 06:33N 29°55' W 089°56'0 0.0
2016-Apr-26 05:33N 29°55' W 089°56'0 0.0
2016-Apr-26 04:33N 29°55' W 089°56'0 0.0
2016-Apr-26 03:33N 29°55' W 089°56'0 0.0
2016-Apr-26 02:33N 29°55' W 089°56'0 0.0
2016-Apr-26 01:33N 29°55' W 089°56'0 0.0
2016-Apr-26 00:33N 29°55' W 089°56'0 0.0
2016-Apr-25 23:33N 29°55' W 089°56'0 0.0
2016-Apr-25 22:33N 29°55' W 089°56'0 0.0
2016-Apr-25 21:33N 29°55' W 089°56'0 0.0
2016-Apr-25 20:33N 29°55' W 089°56'0 0.0
2016-Apr-25 19:33N 29°55' W 089°56'0 0.0
2016-Apr-25 18:33N 29°55' W 089°56'0 0.0
2016-Apr-25 17:33N 29°55' W 089°56'0 0.0
2016-Apr-25 16:33N 29°55' W 089°56'0 0.0
2016-Apr-25 15:33N 29°55' W 089°56'0 0.0
2016-Apr-25 14:33N 29°55' W 089°56'0 0.0
2016-Apr-25 13:32N 29°55' W 089°56'0 0.0
2016-Apr-25 12:33N 29°55' W 089°56'0 0.0
2016-Apr-25 11:33N 29°55' W 089°56'0 0.0
2016-Apr-25 10:33N 29°55' W 089°56'0 0.0
2016-Apr-25 09:33N 29°55' W 089°56'0 0.0
2016-Apr-25 08:33N 29°55' W 089°56'0 0.0
2016-Apr-25 07:33N 29°55' W 089°56'0 0.0
2016-Apr-25 06:33N 29°55' W 089°56'2 2.3
2016-Apr-25 05:29N 29°54' W 089°54'0 0.0
2016-Apr-25 04:29N 29°54' W 089°54'0 0.0
2016-Apr-25 03:29N 29°54' W 089°54'1 1.5
2016-Apr-25 02:33N 29°52' W 089°55'2 1.5
2016-Apr-25 01:32N 29°52' W 089°56'0 0.0
2016-Apr-25 00:29N 29°52' W 089°56'0 0.0
2016-Apr-24 23:32N 29°52' W 089°56'0 0.0
2016-Apr-24 22:29N 29°52' W 089°56'0 0.0
2016-Apr-24 21:32N 29°52' W 089°56'0 0.0
2016-Apr-24 20:32N 29°52' W 089°56'0 0.0
2016-Apr-24 19:32N 29°52' W 089°56'0 0.0
2016-Apr-24 18:32N 29°52' W 089°56'0 0.0
2016-Apr-24 17:32N 29°52' W 089°56'0 0.0
2016-Apr-24 16:32N 29°52' W 089°56'0 0.0
2016-Apr-24 15:32N 29°52' W 089°56'0 0.0
2016-Apr-24 14:32N 29°52' W 089°56'0 0.0
2016-Apr-24 13:32N 29°52' W 089°56'0 0.0
2016-Apr-24 12:32N 29°52' W 089°56'0 0.0
2016-Apr-24 11:32N 29°52' W 089°56'0 0.0
2016-Apr-24 10:32N 29°52' W 089°56'0 0.0
2016-Apr-24 09:32N 29°52' W 089°56'0 0.0
2016-Apr-24 08:32N 29°52' W 089°56'0 0.0
2016-Apr-24 07:32N 29°52' W 089°56'0 0.0
2016-Apr-24 06:32N 29°52' W 089°56'0 0.0
2016-Apr-24 05:32N 29°52' W 089°56'0 0.0
2016-Apr-24 04:32N 29°52' W 089°56'0 0.0
2016-Apr-24 03:32N 29°52' W 089°56'0 0.0
2016-Apr-24 02:29N 29°52' W 089°56'0 0.0
2016-Apr-24 01:32N 29°52' W 089°56'0 0.0
2016-Apr-24 00:32N 29°52' W 089°56'0 0.0
2016-Apr-23 23:32N 29°52' W 089°56'0 0.0
2016-Apr-23 22:29N 29°52' W 089°56'0 0.0
2016-Apr-23 21:32N 29°52' W 089°56'0 0.0
2016-Apr-23 20:32N 29°52' W 089°56'0 0.0
2016-Apr-23 19:32N 29°52' W 089°56'0 0.0
2016-Apr-23 18:32N 29°52' W 089°56'0 0.0
2016-Apr-23 17:32N 29°52' W 089°56'0 0.0
2016-Apr-23 16:32N 29°52' W 089°56'0 0.0
2016-Apr-23 15:32N 29°52' W 089°56'0 0.0
2016-Apr-23 14:29N 29°52' W 089°56'0 0.0
2016-Apr-23 13:32N 29°52' W 089°56'0 0.0
2016-Apr-23 12:32N 29°52' W 089°56'0 0.0
2016-Apr-23 11:32N 29°52' W 089°56'0 0.0
2016-Apr-23 10:32N 29°52' W 089°56'0 0.0
2016-Apr-23 09:32N 29°52' W 089°56'0 0.0
2016-Apr-23 08:32N 29°52' W 089°56'0 0.0
2016-Apr-23 07:32N 29°52' W 089°56'0 0.0
2016-Apr-23 06:32N 29°52' W 089°56'0 0.0
2016-Apr-23 05:32N 29°52' W 089°56'0 0.0
2016-Apr-23 04:32N 29°52' W 089°56'0 0.0
2016-Apr-23 03:32N 29°52' W 089°56'0 0.0
2016-Apr-23 02:32N 29°52' W 089°56'0 0.0
2016-Apr-23 01:29N 29°52' W 089°56'0 0.0
2016-Apr-23 00:32N 29°52' W 089°56'0 0.0
2016-Apr-22 23:32N 29°52' W 089°56'0 0.0
2016-Apr-22 22:29N 29°52' W 089°56'0 0.0
2016-Apr-22 21:29N 29°52' W 089°56'0 0.0
2016-Apr-22 20:32N 29°52' W 089°56'0 0.0
2016-Apr-22 19:32N 29°52' W 089°56'0 0.0
2016-Apr-22 18:32N 29°52' W 089°56'0 0.0
2016-Apr-22 17:29N 29°52' W 089°56'0 0.0
2016-Apr-22 16:32N 29°52' W 089°56'0 0.0
2016-Apr-22 15:32N 29°52' W 089°56'0 0.0
2016-Apr-22 14:32N 29°52' W 089°56'0 0.0
2016-Apr-22 13:32N 29°52' W 089°56'0 0.0
2016-Apr-22 12:32N 29°52' W 089°56'0 0.0
2016-Apr-22 11:32N 29°52' W 089°56'0 0.0
2016-Apr-22 10:32N 29°52' W 089°56'0 0.0
2016-Apr-22 09:32N 29°52' W 089°56'0 0.0
2016-Apr-22 08:26N 29°52' W 089°56'0 0.0
2016-Apr-22 07:29N 29°52' W 089°56'0 0.0
2016-Apr-22 06:29N 29°52' W 089°56'0 0.0
2016-Apr-22 05:32N 29°52' W 089°56'0 0.0
2016-Apr-22 04:32N 29°52' W 089°56'0 0.0
2016-Apr-22 03:32N 29°52' W 089°56'0 0.0
2016-Apr-22 02:32N 29°52' W 089°56'0 0.0
2016-Apr-22 01:32N 29°52' W 089°56'0 0.0
2016-Apr-22 00:32N 29°52' W 089°56'0 0.0
2016-Apr-21 23:26N 29°52' W 089°56'0 0.0
2016-Apr-21 22:32N 29°52' W 089°56'0 0.0
2016-Apr-21 21:32N 29°52' W 089°56'0 0.0
2016-Apr-21 20:32N 29°52' W 089°56'0 0.0
2016-Apr-21 19:32N 29°52' W 089°56'0 0.0
2016-Apr-21 18:32N 29°52' W 089°56'0 0.0
2016-Apr-21 17:29N 29°52' W 089°56'0 0.0
2016-Apr-21 16:32N 29°52' W 089°56'0 0.0
2016-Apr-21 15:32N 29°52' W 089°56'0 0.0
2016-Apr-21 14:32N 29°52' W 089°56'0 0.0
2016-Apr-21 13:32N 29°52' W 089°56'0 0.0
2016-Apr-21 12:32N 29°52' W 089°56'0 0.0
2016-Apr-21 11:32N 29°52' W 089°56'0 0.0
2016-Apr-21 10:29N 29°52' W 089°56'0 0.0
2016-Apr-21 09:32N 29°52' W 089°56'0 0.0
2016-Apr-21 08:32N 29°52' W 089°56'0 0.0
2016-Apr-21 07:32N 29°52' W 089°56'0 0.0
2016-Apr-21 06:32N 29°52' W 089°56'0 0.0
2016-Apr-21 05:32N 29°52' W 089°56'0 0.0
2016-Apr-21 04:26N 29°52' W 089°56'0 0.0
2016-Apr-21 03:32N 29°52' W 089°56'0 0.0
2016-Apr-21 02:32N 29°52' W 089°56'0 0.0
2016-Apr-21 01:29N 29°52' W 089°56'0 0.0
2016-Apr-21 00:32N 29°52' W 089°56'0 0.0
2016-Apr-20 23:32N 29°52' W 089°56'0 0.0
2016-Apr-20 22:29N 29°52' W 089°56'0 0.0
2016-Apr-20 21:32N 29°52' W 089°56'0 0.0
2016-Apr-20 20:32N 29°52' W 089°56'0 0.0
2016-Apr-20 19:32N 29°52' W 089°56'0 0.0
2016-Apr-20 18:32N 29°52' W 089°56'0 0.0
2016-Apr-20 17:29N 29°52' W 089°56'0 0.0
2016-Apr-20 16:32N 29°52' W 089°56'0 0.0
2016-Apr-20 15:32N 29°52' W 089°56'0 0.0
2016-Apr-20 14:29N 29°52' W 089°56'0 0.0
2016-Apr-20 13:32N 29°52' W 089°56'0 0.0
2016-Apr-20 12:32N 29°52' W 089°56'0 0.0
2016-Apr-20 11:32N 29°52' W 089°56'0 0.0
2016-Apr-20 10:32N 29°52' W 089°56'0 0.0
2016-Apr-20 09:32N 29°52' W 089°56'0 0.0
2016-Apr-20 08:32N 29°52' W 089°56'0 0.0
2016-Apr-20 07:32N 29°52' W 089°56'  

Dump ship's entire track history